Time;durP1;ratioP1;P1;durP2;ratioP2;P2;SDS_P1;SDS_P2;PMS_P1;PMS_P2;Temp;Humidity;BMP_temperature;BMP_pressure;BME280_temperature;BME280_humidity;BME280_pressure;Samples;Min_cycle;Max_cycle;Signal;HPM_P1;HPM_P2
2022/04/04 00:00:54;;;;;;;;;;;19.50;29.60;;;;;;5106953;28;20372;-53
2022/04/04 00:03:21;;;;;;;;;;;19.50;29.60;;;;;;5089783;28;19981;-44
2022/04/04 00:05:48;;;;;;;;;;;19.50;29.60;;;;;;5090916;28;20290;-49
2022/04/04 00:08:15;;;;;;;;;;;19.50;29.60;;;;;;5090499;28;19920;-48
2022/04/04 00:10:43;;;;;;;;;;;19.50;29.60;;;;;;5097224;28;19923;-47
2022/04/04 00:13:11;;;;;;;;;;;19.50;29.60;;;;;;5094276;28;19955;-48
2022/04/04 00:15:37;;;;;;;;;;;19.50;29.60;;;;;;5094188;28;20010;-46
2022/04/04 00:18:08;;;;;;;;;;;19.50;29.60;;;;;;5091696;28;20280;-51
2022/04/04 00:20:35;;;;;;;;;;;19.50;29.60;;;;;;5091084;28;19920;-45
2022/04/04 00:23:01;;;;;;;;;;;19.50;29.60;;;;;;5089630;28;20381;-51
2022/04/04 00:25:29;;;;;;;;;;;19.50;29.70;;;;;;5093251;28;19942;-50
2022/04/04 00:27:57;;;;;;;;;;;19.50;29.70;;;;;;5093066;28;20062;-46
2022/04/04 00:30:23;;;;;;;;;;;19.50;29.70;;;;;;5097688;28;19920;-51
2022/04/04 00:32:50;;;;;;;;;;;19.50;29.70;;;;;;5099784;28;20296;-52
2022/04/04 00:35:17;;;;;;;;;;;19.50;29.70;;;;;;5090400;28;20277;-46
2022/04/04 00:37:44;;;;;;;;;;;19.50;29.70;;;;;;5099540;28;19938;-47
2022/04/04 00:40:11;;;;;;;;;;;19.50;29.70;;;;;;5097413;28;20142;-51
2022/04/04 00:42:39;;;;;;;;;;;19.50;29.80;;;;;;5096949;28;19940;-46
2022/04/04 00:45:08;;;;;;;;;;;19.50;29.80;;;;;;5094547;28;19928;-49
2022/04/04 00:47:35;;;;;;;;;;;19.50;29.80;;;;;;5096540;28;19920;-46
2022/04/04 00:50:01;;;;;;;;;;;19.50;29.80;;;;;;5096127;28;19985;-45
2022/04/04 00:52:28;;;;;;;;;;;19.50;29.80;;;;;;5097578;28;19995;-50
2022/04/04 00:54:55;;;;;;;;;;;19.50;29.80;;;;;;5100767;28;19932;-49
2022/04/04 00:57:22;;;;;;;;;;;19.50;29.80;;;;;;5095983;28;19946;-47
2022/04/04 00:59:49;;;;;;;;;;;19.50;29.80;;;;;;5091776;28;19924;-45
2022/04/04 01:02:17;;;;;;;;;;;19.50;29.80;;;;;;5091022;28;19924;-49
2022/04/04 01:04:43;;;;;;;;;;;19.50;29.90;;;;;;5098813;28;19928;-51
2022/04/04 01:07:10;;;;;;;;;;;19.50;29.90;;;;;;5103173;27;19920;-48
2022/04/04 01:09:37;;;;;;;;;;;19.50;29.90;;;;;;5097347;28;19977;-47
2022/04/04 01:12:07;;;;;;;;;;;19.50;29.90;;;;;;5101612;28;19920;-50
2022/04/04 01:14:34;;;;;;;;;;;19.60;30.00;;;;;;5093698;28;19920;-48
2022/04/04 01:17:01;;;;;;;;;;;19.50;29.90;;;;;;5091361;28;19920;-44
2022/04/04 01:19:29;;;;;;;;;;;19.50;29.90;;;;;;5090845;28;19939;-48
2022/04/04 01:21:56;;;;;;;;;;;19.50;29.90;;;;;;5095880;28;19924;-48
2022/04/04 01:24:24;;;;;;;;;;;19.50;29.90;;;;;;5091359;28;19920;-49
2022/04/04 01:26:51;;;;;;;;;;;19.50;30.00;;;;;;5095069;28;19931;-48
2022/04/04 01:29:20;;;;;;;;;;;19.50;30.00;;;;;;5093270;28;19920;-47
2022/04/04 01:31:47;;;;;;;;;;;19.60;30.00;;;;;;5095153;28;19924;-48
2022/04/04 01:34:14;;;;;;;;;;;19.50;30.00;;;;;;5090233;28;19946;-50
2022/04/04 01:36:41;;;;;;;;;;;19.60;30.10;;;;;;5094321;28;19972;-47
2022/04/04 01:39:07;;;;;;;;;;;19.60;30.10;;;;;;5099314;28;19994;-45
2022/04/04 01:41:35;;;;;;;;;;;19.60;30.20;;;;;;5091798;28;19924;-52
2022/04/04 01:44:02;;;;;;;;;;;19.60;30.20;;;;;;5095013;28;19931;-48
2022/04/04 01:46:29;;;;;;;;;;;19.60;30.30;;;;;;5095004;28;20010;-51
2022/04/04 01:48:56;;;;;;;;;;;19.60;30.30;;;;;;5087864;28;20396;-44
2022/04/04 01:51:23;;;;;;;;;;;19.60;30.30;;;;;;5095178;28;19993;-47
2022/04/04 01:53:50;;;;;;;;;;;19.60;30.30;;;;;;5088418;28;20054;-50
2022/04/04 01:56:17;;;;;;;;;;;19.60;30.40;;;;;;5095191;28;19926;-48
2022/04/04 01:58:45;;;;;;;;;;;19.60;30.40;;;;;;5094426;28;19931;-48
2022/04/04 02:01:13;;;;;;;;;;;19.60;30.40;;;;;;5090915;28;19924;-45
2022/04/04 02:03:40;;;;;;;;;;;19.60;30.50;;;;;;5096772;28;19927;-47
2022/04/04 02:06:06;;;;;;;;;;;19.60;30.50;;;;;;5095663;28;19959;-50
2022/04/04 02:08:33;;;;;;;;;;;19.60;30.60;;;;;;5091224;28;20009;-53
2022/04/04 02:11:00;;;;;;;;;;;19.60;30.70;;;;;;5088861;28;19924;-50
2022/04/04 02:13:27;;;;;;;;;;;19.60;30.70;;;;;;5088780;28;20313;-53
2022/04/04 02:15:56;;;;;;;;;;;19.60;30.70;;;;;;5090663;28;19926;-48
2022/04/04 02:18:23;;;;;;;;;;;19.60;30.70;;;;;;5092245;28;19932;-47
2022/04/04 02:20:49;;;;;;;;;;;19.60;30.80;;;;;;5090762;28;19966;-47
2022/04/04 02:23:18;;;;;;;;;;;19.50;30.70;;;;;;5091854;28;20395;-51
2022/04/04 02:25:45;;;;;;;;;;;19.60;30.80;;;;;;5084037;28;19920;-48
2022/04/04 02:28:13;;;;;;;;;;;19.60;30.80;;;;;;5091656;28;20335;-47
2022/04/04 02:30:39;;;;;;;;;;;19.60;30.90;;;;;;5090248;28;19921;-52
2022/04/04 02:33:07;;;;;;;;;;;19.60;30.90;;;;;;5093308;28;20388;-48
2022/04/04 02:35:34;;;;;;;;;;;19.60;30.90;;;;;;5090458;28;19931;-50
2022/04/04 02:38:01;;;;;;;;;;;19.60;30.90;;;;;;5087573;28;20087;-47
2022/04/04 02:40:28;;;;;;;;;;;19.60;31.00;;;;;;5091036;28;20001;-49
2022/04/04 02:42:54;;;;;;;;;;;19.60;30.90;;;;;;5088887;28;19969;-48
2022/04/04 02:45:21;;;;;;;;;;;19.60;30.90;;;;;;5088738;28;19932;-46
2022/04/04 02:47:48;;;;;;;;;;;19.60;31.00;;;;;;5096145;28;20008;-50
2022/04/04 02:50:16;;;;;;;;;;;19.60;30.90;;;;;;5091041;28;19924;-46
2022/04/04 02:52:44;;;;;;;;;;;19.60;31.00;;;;;;5089200;28;20448;-46
2022/04/04 02:57:55;;;;;;;;;;;19.60;31.00;;;;;;5089942;28;19920;-53
2022/04/04 03:00:23;;;;;;;;;;;19.60;31.00;;;;;;5089260;28;19962;-47
2022/04/04 03:02:50;;;;;;;;;;;19.60;31.00;;;;;;5093507;28;19920;-50
2022/04/04 03:05:18;;;;;;;;;;;19.60;31.00;;;;;;5090653;28;20347;-44
2022/04/04 03:07:45;;;;;;;;;;;19.60;31.00;;;;;;5091189;28;19924;-47
2022/04/04 03:10:13;;;;;;;;;;;19.60;31.10;;;;;;5091300;28;19927;-51
2022/04/04 03:12:41;;;;;;;;;;;19.60;31.10;;;;;;5095311;28;19920;-53
2022/04/04 03:15:08;;;;;;;;;;;19.60;31.10;;;;;;5089713;28;20001;-46
2022/04/04 03:17:38;;;;;;;;;;;19.60;31.20;;;;;;5084572;28;19975;-49
2022/04/04 03:20:09;;;;;;;;;;;19.60;31.20;;;;;;5092596;28;19970;-49
2022/04/04 03:22:37;;;;;;;;;;;19.60;31.20;;;;;;5094373;28;19919;-49
2022/04/04 03:25:04;;;;;;;;;;;19.60;31.30;;;;;;5095434;28;20006;-48
2022/04/04 03:27:31;;;;;;;;;;;19.60;31.30;;;;;;5083483;28;19920;-50
2022/04/04 03:29:58;;;;;;;;;;;19.50;31.20;;;;;;5086604;28;19943;-46
2022/04/04 03:32:25;;;;;;;;;;;19.60;31.30;;;;;;5089510;28;20013;-47
2022/04/04 03:34:52;;;;;;;;;;;19.60;31.30;;;;;;5089868;28;20313;-47
2022/04/04 03:37:18;;;;;;;;;;;19.60;31.40;;;;;;5091464;28;19928;-46
2022/04/04 03:39:47;;;;;;;;;;;19.60;31.40;;;;;;5091148;28;20396;-50
2022/04/04 03:42:13;;;;;;;;;;;19.60;31.40;;;;;;5093989;28;20026;-54
2022/04/04 03:44:40;;;;;;;;;;;19.60;31.40;;;;;;5091024;28;19920;-49
2022/04/04 03:47:07;;;;;;;;;;;19.60;31.40;;;;;;5084957;28;19924;-46
2022/04/04 03:49:34;;;;;;;;;;;19.60;31.50;;;;;;5091179;28;20343;-49
2022/04/04 03:52:01;;;;;;;;;;;19.60;31.50;;;;;;5088202;28;19976;-49
2022/04/04 03:54:28;;;;;;;;;;;19.60;31.60;;;;;;5092051;28;19920;-45
2022/04/04 03:56:56;;;;;;;;;;;19.60;31.50;;;;;;5087686;28;19920;-54
2022/04/04 03:59:22;;;;;;;;;;;19.60;31.60;;;;;;5088481;28;19928;-45
2022/04/04 04:01:49;;;;;;;;;;;19.60;31.50;;;;;;5094602;28;19926;-48
2022/04/04 04:04:16;;;;;;;;;;;19.60;31.50;;;;;;5094991;28;19978;-52
2022/04/04 04:06:43;;;;;;;;;;;19.60;31.60;;;;;;5094484;28;20297;-51
2022/04/04 04:09:10;;;;;;;;;;;19.60;31.60;;;;;;5101849;28;19934;-49
2022/04/04 04:11:37;;;;;;;;;;;19.60;31.60;;;;;;5094933;28;19963;-53
2022/04/04 04:14:05;;;;;;;;;;;19.60;31.60;;;;;;5091896;28;19963;-49
2022/04/04 04:16:31;;;;;;;;;;;19.60;31.60;;;;;;5094806;28;20468;-47
2022/04/04 04:18:58;;;;;;;;;;;19.60;31.60;;;;;;5090273;28;20040;-45
2022/04/04 04:21:25;;;;;;;;;;;19.60;31.60;;;;;;5092543;28;19923;-51
2022/04/04 04:23:52;;;;;;;;;;;19.60;31.60;;;;;;5092580;28;19927;-48
2022/04/04 04:26:19;;;;;;;;;;;19.60;31.60;;;;;;5092519;28;20253;-51
2022/04/04 04:28:47;;;;;;;;;;;19.60;31.60;;;;;;5095195;28;20315;-49
2022/04/04 04:31:16;;;;;;;;;;;19.60;31.60;;;;;;5092299;28;20373;-51
2022/04/04 04:33:43;;;;;;;;;;;19.60;31.60;;;;;;5093257;28;19923;-48
2022/04/04 04:36:10;;;;;;;;;;;19.60;31.60;;;;;;5093675;28;20024;-45
2022/04/04 04:38:37;;;;;;;;;;;19.60;31.70;;;;;;5087548;28;19928;-48
2022/04/04 04:41:04;;;;;;;;;;;19.60;31.60;;;;;;5089232;28;19923;-47
2022/04/04 04:43:30;;;;;;;;;;;19.60;31.60;;;;;;5089577;28;20010;-46
2022/04/04 04:45:57;;;;;;;;;;;19.60;31.60;;;;;;5090252;28;19979;-50
2022/04/04 04:48:25;;;;;;;;;;;19.60;31.70;;;;;;5094983;28;19963;-45
2022/04/04 04:50:52;;;;;;;;;;;19.60;31.70;;;;;;5099508;28;19920;-45
2022/04/04 04:53:19;;;;;;;;;;;19.60;31.70;;;;;;5096591;28;19931;-44
2022/04/04 04:55:46;;;;;;;;;;;19.60;31.70;;;;;;5092853;28;19920;-46
2022/04/04 04:58:13;;;;;;;;;;;19.60;31.70;;;;;;5095243;28;20035;-45
2022/04/04 05:00:40;;;;;;;;;;;19.60;31.70;;;;;;5088279;28;20273;-48
2022/04/04 05:03:25;;;;;;;;;;;19.60;31.70;;;;;;5093619;28;19946;-45
2022/04/04 05:05:53;;;;;;;;;;;19.60;31.70;;;;;;5093937;28;19924;-44
2022/04/04 05:08:20;;;;;;;;;;;19.60;31.80;;;;;;5092967;28;19932;-45
2022/04/04 05:10:48;;;;;;;;;;;19.60;31.80;;;;;;5094400;28;20016;-45
2022/04/04 05:13:16;;;;;;;;;;;19.60;31.80;;;;;;5093925;28;20299;-47
2022/04/04 05:15:44;;;;;;;;;;;19.60;31.80;;;;;;5102763;28;19926;-50
2022/04/04 05:18:11;;;;;;;;;;;19.60;31.80;;;;;;5090445;28;19951;-48
2022/04/04 05:20:37;;;;;;;;;;;19.60;31.80;;;;;;5090196;28;19959;-45
2022/04/04 05:23:06;;;;;;;;;;;19.60;31.90;;;;;;5097325;28;20201;-45
2022/04/04 05:25:33;;;;;;;;;;;19.60;31.90;;;;;;5089611;28;19961;-44
2022/04/04 05:28:01;;;;;;;;;;;19.60;31.90;;;;;;5092112;28;19964;-46
2022/04/04 05:30:28;;;;;;;;;;;19.60;31.90;;;;;;5097896;28;19920;-46
2022/04/04 05:32:55;;;;;;;;;;;19.60;31.90;;;;;;5094336;28;19932;-47
2022/04/04 05:35:22;;;;;;;;;;;19.60;31.90;;;;;;5096738;28;20015;-49
2022/04/04 05:37:54;;;;;;;;;;;19.60;31.90;;;;;;5099939;28;19924;-46
2022/04/04 05:40:22;;;;;;;;;;;19.60;31.90;;;;;;5092880;28;19932;-45
2022/04/04 05:42:49;;;;;;;;;;;19.60;31.90;;;;;;5090873;28;20018;-49
2022/04/04 05:45:16;;;;;;;;;;;19.60;31.90;;;;;;5093330;28;19965;-49
2022/04/04 05:47:43;;;;;;;;;;;19.60;32.00;;;;;;5093231;28;19920;-46
2022/04/04 05:50:10;;;;;;;;;;;19.60;32.00;;;;;;5091669;28;19920;-45
2022/04/04 05:52:37;;;;;;;;;;;19.60;32.00;;;;;;5090029;28;20003;-50
2022/04/04 05:55:04;;;;;;;;;;;19.60;32.00;;;;;;5094398;28;19931;-45
2022/04/04 05:57:34;;;;;;;;;;;19.60;32.00;;;;;;5096118;28;20452;-48
2022/04/04 06:00:01;;;;;;;;;;;19.60;32.00;;;;;;5076935;28;19932;-49
2022/04/04 06:02:28;;;;;;;;;;;19.60;32.00;;;;;;5093458;28;19932;-44
2022/04/04 06:04:54;;;;;;;;;;;19.60;32.00;;;;;;5090460;28;19924;-44
2022/04/04 06:07:21;;;;;;;;;;;19.60;32.00;;;;;;5092822;28;20372;-44
2022/04/04 06:09:48;;;;;;;;;;;19.60;32.00;;;;;;5093846;28;19970;-49
2022/04/04 06:12:15;;;;;;;;;;;19.60;32.00;;;;;;5089438;28;19924;-44
2022/04/04 06:14:43;;;;;;;;;;;19.60;32.10;;;;;;5094812;28;20144;-49
2022/04/04 06:17:10;;;;;;;;;;;19.60;32.00;;;;;;5091568;28;19924;-43
2022/04/04 06:19:36;;;;;;;;;;;19.60;32.00;;;;;;5087019;28;20062;-48
2022/04/04 06:22:04;;;;;;;;;;;19.60;32.00;;;;;;5090506;28;19969;-43
2022/04/04 06:24:31;;;;;;;;;;;19.60;32.00;;;;;;5089708;28;19919;-48
2022/04/04 06:26:58;;;;;;;;;;;19.60;32.00;;;;;;5093639;28;19943;-46
2022/04/04 06:29:25;;;;;;;;;;;19.60;32.00;;;;;;5090729;28;19950;-44
2022/04/04 06:31:53;;;;;;;;;;;19.60;32.10;;;;;;5087751;28;19919;-50
2022/04/04 06:34:20;;;;;;;;;;;19.60;32.10;;;;;;5092992;28;20412;-49
2022/04/04 06:36:47;;;;;;;;;;;19.60;32.00;;;;;;5091381;28;19927;-44
2022/04/04 06:39:13;;;;;;;;;;;19.60;32.00;;;;;;5094129;28;20364;-45
2022/04/04 06:41:40;;;;;;;;;;;19.60;32.10;;;;;;5089901;28;19923;-47
2022/04/04 06:44:07;;;;;;;;;;;19.60;32.10;;;;;;5093033;28;20269;-49
2022/04/04 06:46:35;;;;;;;;;;;19.60;32.00;;;;;;5090852;28;20019;-44
2022/04/04 06:49:04;;;;;;;;;;;19.60;32.10;;;;;;5086208;27;20003;-45
2022/04/04 06:51:30;;;;;;;;;;;19.60;32.10;;;;;;5092682;28;19924;-46
2022/04/04 06:53:57;;;;;;;;;;;19.60;32.10;;;;;;5087073;28;19930;-49
2022/04/04 06:56:24;;;;;;;;;;;19.60;32.10;;;;;;5090595;28;19928;-46
2022/04/04 06:58:52;;;;;;;;;;;19.60;32.10;;;;;;5084317;28;19939;-50
2022/04/04 07:01:19;;;;;;;;;;;19.60;32.10;;;;;;5092968;27;19920;-49
2022/04/04 07:03:46;;;;;;;;;;;19.60;32.10;;;;;;5087236;28;19924;-45
2022/04/04 07:06:15;;;;;;;;;;;19.60;32.10;;;;;;5098292;28;19924;-48
2022/04/04 07:08:43;;;;;;;;;;;19.60;32.10;;;;;;5094638;28;19926;-44
2022/04/04 07:11:10;;;;;;;;;;;19.60;32.10;;;;;;5094232;28;19920;-46
2022/04/04 07:13:37;;;;;;;;;;;19.60;32.10;;;;;;5091770;27;19920;-52
2022/04/04 07:16:04;;;;;;;;;;;19.60;32.00;;;;;;5083376;28;19932;-48
2022/04/04 07:18:31;;;;;;;;;;;19.60;32.00;;;;;;5070540;28;20024;-46
2022/04/04 07:20:58;;;;;;;;;;;19.60;32.00;;;;;;5082055;28;19932;-46
2022/04/04 07:23:26;;;;;;;;;;;19.60;32.00;;;;;;5095779;27;19939;-47
2022/04/04 07:25:53;;;;;;;;;;;19.50;31.90;;;;;;5081074;28;19920;-46
2022/04/04 07:28:20;;;;;;;;;;;19.60;31.90;;;;;;5092164;28;19985;-45
2022/04/04 07:30:47;;;;;;;;;;;19.60;31.90;;;;;;5090512;28;19924;-46
2022/04/04 07:33:17;;;;;;;;;;;19.60;31.90;;;;;;5090158;28;19924;-47
2022/04/04 07:35:44;;;;;;;;;;;19.60;31.90;;;;;;5091454;28;19923;-47
2022/04/04 07:38:10;;;;;;;;;;;19.60;31.90;;;;;;5090400;28;19931;-44
2022/04/04 07:40:38;;;;;;;;;;;19.60;32.00;;;;;;5097209;28;19991;-49
2022/04/04 07:43:05;;;;;;;;;;;19.60;31.90;;;;;;5097042;28;19954;-55
2022/04/04 07:45:32;;;;;;;;;;;19.60;32.00;;;;;;5094467;28;20034;-47
2022/04/04 07:47:59;;;;;;;;;;;19.70;32.00;;;;;;5095588;27;19944;-44
2022/04/04 07:50:26;;;;;;;;;;;19.60;32.00;;;;;;5095486;28;19977;-46
2022/04/04 07:52:53;;;;;;;;;;;19.70;32.00;;;;;;5100443;28;20072;-49
2022/04/04 07:55:20;;;;;;;;;;;19.70;32.10;;;;;;5093097;28;20306;-46
2022/04/04 07:57:48;;;;;;;;;;;19.70;32.10;;;;;;5094145;27;20014;-44
2022/04/04 08:00:17;;;;;;;;;;;19.70;32.10;;;;;;5091933;28;19951;-47
2022/04/04 08:02:44;;;;;;;;;;;19.70;32.10;;;;;;5090678;28;19924;-48
2022/04/04 08:05:10;;;;;;;;;;;19.70;32.10;;;;;;5095367;28;20051;-50
2022/04/04 08:07:38;;;;;;;;;;;19.70;32.10;;;;;;5090805;28;19920;-46
2022/04/04 08:10:05;;;;;;;;;;;19.70;32.10;;;;;;5088743;28;20383;-46
2022/04/04 08:12:32;;;;;;;;;;;19.70;32.20;;;;;;5084706;28;20674;-46
2022/04/04 08:15:00;;;;;;;;;;;19.70;32.20;;;;;;5093096;28;19932;-51
2022/04/04 08:17:26;;;;;;;;;;;19.80;32.30;;;;;;5092384;28;19942;-47
2022/04/04 08:19:53;;;;;;;;;;;19.80;32.30;;;;;;5088664;28;20080;-47
2022/04/04 08:22:22;;;;;;;;;;;19.80;32.20;;;;;;5090538;28;20039;-48
2022/04/04 08:24:50;;;;;;;;;;;19.80;32.20;;;;;;5095001;28;19920;-53
2022/04/04 08:27:16;;;;;;;;;;;19.80;32.30;;;;;;5087772;28;19961;-49
2022/04/04 08:29:43;;;;;;;;;;;19.80;32.20;;;;;;5093872;28;19973;-46
2022/04/04 08:32:11;;;;;;;;;;;19.80;32.30;;;;;;5094073;27;19935;-51
2022/04/04 08:34:38;;;;;;;;;;;19.80;32.30;;;;;;5094138;28;19920;-48
2022/04/04 08:37:05;;;;;;;;;;;19.80;32.30;;;;;;5091895;28;20334;-47
2022/04/04 08:39:32;;;;;;;;;;;19.80;32.30;;;;;;5092449;28;20086;-46
2022/04/04 08:41:59;;;;;;;;;;;19.80;32.30;;;;;;5095263;28;19924;-49
2022/04/04 08:44:25;;;;;;;;;;;19.80;32.30;;;;;;5095895;28;20275;-52
2022/04/04 08:46:52;;;;;;;;;;;19.80;32.30;;;;;;5091402;28;19996;-46
2022/04/04 08:49:20;;;;;;;;;;;19.80;32.40;;;;;;5090956;28;20367;-45
2022/04/04 08:51:48;;;;;;;;;;;19.80;32.30;;;;;;5092615;28;19928;-49
2022/04/04 08:54:15;;;;;;;;;;;19.80;32.30;;;;;;5091693;28;19935;-48
2022/04/04 08:56:43;;;;;;;;;;;19.80;32.40;;;;;;5091462;27;19939;-47
2022/04/04 08:59:09;;;;;;;;;;;19.80;32.40;;;;;;5091755;28;20068;-49
2022/04/04 09:01:36;;;;;;;;;;;19.80;32.50;;;;;;5091646;28;20013;-51
2022/04/04 09:04:16;;;;;;;;;;;19.90;32.50;;;;;;5090172;28;19928;-51
2022/04/04 09:06:51;;;;;;;;;;;19.80;32.50;;;;;;5089012;28;19926;-49
2022/04/04 09:09:19;;;;;;;;;;;19.90;32.60;;;;;;5086927;28;19927;-49
2022/04/04 09:11:51;;;;;;;;;;;19.90;32.60;;;;;;5089374;28;20302;-50
2022/04/04 09:14:20;;;;;;;;;;;19.90;32.60;;;;;;5090897;28;19927;-50
2022/04/04 09:16:52;;;;;;;;;;;19.90;32.50;;;;;;5091824;28;20379;-54
2022/04/04 09:19:27;;;;;;;;;;;19.90;32.60;;;;;;5091966;28;19931;-47
2022/04/04 09:21:55;;;;;;;;;;;19.90;32.60;;;;;;5094919;28;20019;-47
2022/04/04 09:24:40;;;;;;;;;;;19.90;32.60;;;;;;5095812;28;20019;-47
2022/04/04 09:27:10;;;;;;;;;;;19.90;32.70;;;;;;5088205;28;19969;-51
2022/04/04 09:29:37;;;;;;;;;;;19.90;32.70;;;;;;5087219;28;19920;-49
2022/04/04 09:32:05;;;;;;;;;;;19.90;32.70;;;;;;5095393;27;19995;-46
2022/04/04 09:34:32;;;;;;;;;;;19.90;32.70;;;;;;5091878;28;20019;-50
2022/04/04 09:37:00;;;;;;;;;;;19.90;32.70;;;;;;5090416;28;19938;-45
2022/04/04 09:39:29;;;;;;;;;;;19.90;32.80;;;;;;5088273;28;19935;-45
2022/04/04 09:41:58;;;;;;;;;;;20.00;32.80;;;;;;5108379;27;19988;-44
2022/04/04 09:44:26;;;;;;;;;;;19.90;32.70;;;;;;5090403;28;19920;-48
2022/04/04 09:46:53;;;;;;;;;;;20.00;32.90;;;;;;5090913;28;19920;-48
2022/04/04 09:49:21;;;;;;;;;;;20.00;32.80;;;;;;5090451;28;19920;-54
2022/04/04 09:51:49;;;;;;;;;;;20.00;32.90;;;;;;5090074;28;19943;-50
2022/04/04 09:54:17;;;;;;;;;;;20.00;32.90;;;;;;5088565;28;19931;-54
2022/04/04 09:56:45;;;;;;;;;;;20.00;32.90;;;;;;5093883;28;19932;-44
2022/04/04 09:59:14;;;;;;;;;;;20.00;32.90;;;;;;5089443;28;19924;-48
2022/04/04 10:01:41;;;;;;;;;;;20.00;32.90;;;;;;5093142;28;19936;-46
2022/04/04 10:04:08;;;;;;;;;;;20.00;32.90;;;;;;5086237;28;20023;-47
2022/04/04 10:06:36;;;;;;;;;;;20.00;32.90;;;;;;5085946;28;20370;-49
2022/04/04 10:09:03;;;;;;;;;;;20.00;32.90;;;;;;5088280;28;19945;-45
2022/04/04 10:11:34;;;;;;;;;;;20.00;33.50;;;;;;5096995;28;19923;-45
2022/04/04 10:14:01;;;;;;;;;;;20.00;32.90;;;;;;5092693;28;19957;-45
2022/04/04 10:16:28;;;;;;;;;;;20.00;32.90;;;;;;5093180;28;19939;-45
2022/04/04 10:18:57;;;;;;;;;;;20.00;32.90;;;;;;5091376;28;20449;-44
2022/04/04 10:21:25;;;;;;;;;;;20.00;33.00;;;;;;5085460;28;19985;-54
2022/04/04 10:23:56;;;;;;;;;;;20.00;33.00;;;;;;5089693;28;19924;-44
2022/04/04 10:26:25;;;;;;;;;;;20.00;33.00;;;;;;5090352;28;19932;-47
2022/04/04 10:29:06;;;;;;;;;;;20.00;33.00;;;;;;5092324;27;20372;-45
2022/04/04 10:31:33;;;;;;;;;;;20.00;33.00;;;;;;5090830;28;20026;-44
2022/04/04 10:34:11;;;;;;;;;;;20.00;33.00;;;;;;5083887;28;20330;-51
2022/04/04 10:36:37;;;;;;;;;;;20.00;33.00;;;;;;5088645;28;19939;-44
2022/04/04 10:39:04;;;;;;;;;;;20.00;33.00;;;;;;5086332;28;19924;-51
2022/04/04 10:41:32;;;;;;;;;;;20.00;33.00;;;;;;5089718;28;20015;-44
2022/04/04 10:44:01;;;;;;;;;;;20.00;33.00;;;;;;5087657;28;19951;-47
2022/04/04 10:46:28;;;;;;;;;;;20.00;33.10;;;;;;5090354;28;20250;-53
2022/04/04 10:48:56;;;;;;;;;;;20.00;33.10;;;;;;5090185;28;20504;-48
2022/04/04 10:51:27;;;;;;;;;;;20.00;33.10;;;;;;5086415;28;19942;-53
2022/04/04 10:53:54;;;;;;;;;;;20.00;33.10;;;;;;5087919;28;20022;-44
2022/04/04 10:56:22;;;;;;;;;;;20.00;33.20;;;;;;5091230;28;19932;-48
2022/04/04 10:58:49;;;;;;;;;;;20.00;33.20;;;;;;5086122;28;19931;-51
2022/04/04 11:01:18;;;;;;;;;;;20.00;32.70;;;;;;5096951;28;19924;-45
2022/04/04 11:03:58;;;;;;;;;;;20.00;33.20;;;;;;5093864;28;19995;-44
2022/04/04 11:09:26;;;;;;;;;;;20.10;33.30;;;;;;5088424;28;19970;-44
2022/04/04 11:11:54;;;;;;;;;;;20.00;33.20;;;;;;5087720;28;20001;-46
2022/04/04 11:14:42;;;;;;;;;;;20.10;33.30;;;;;;5092679;28;19985;-53
2022/04/04 11:17:23;;;;;;;;;;;20.10;33.20;;;;;;5090633;27;20364;-47
2022/04/04 11:19:51;;;;;;;;;;;20.00;33.20;;;;;;5093984;28;20015;-46
2022/04/04 11:22:18;;;;;;;;;;;20.10;33.20;;;;;;5093969;28;19924;-47
2022/04/04 11:24:51;;;;;;;;;;;20.00;33.10;;;;;;5090059;28;20447;-46
2022/04/04 11:27:18;;;;;;;;;;;20.00;33.20;;;;;;5099620;28;19968;-54
2022/04/04 11:29:45;;;;;;;;;;;20.10;33.20;;;;;;5089243;28;19920;-45
2022/04/04 11:32:15;;;;;;;;;;;20.10;33.20;;;;;;5090240;28;20245;-49
2022/04/04 11:34:43;;;;;;;;;;;20.10;33.20;;;;;;5085924;28;19962;-45
2022/04/04 11:37:17;;;;;;;;;;;20.10;33.20;;;;;;5091168;28;20032;-49
2022/04/04 11:39:44;;;;;;;;;;;20.10;33.30;;;;;;5077555;28;19955;-45
2022/04/04 11:42:11;;;;;;;;;;;20.10;33.40;;;;;;5085835;28;19931;-44
2022/04/04 11:44:45;;;;;;;;;;;20.10;33.40;;;;;;5087149;28;20018;-54
2022/04/04 11:47:11;;;;;;;;;;;20.20;33.60;;;;;;5086896;28;19980;-44
2022/04/04 11:49:38;;;;;;;;;;;20.20;33.60;;;;;;5095685;28;19920;-51
2022/04/04 11:52:09;;;;;;;;;;;20.20;33.70;;;;;;5093014;28;19969;-45
2022/04/04 11:54:41;;;;;;;;;;;20.20;33.80;;;;;;5086840;28;19938;-46
2022/04/04 11:57:08;;;;;;;;;;;20.20;33.80;;;;;;5095558;28;19927;-51
2022/04/04 11:59:35;;;;;;;;;;;20.20;33.80;;;;;;5084418;28;19940;-46
2022/04/04 12:02:03;;;;;;;;;;;20.20;33.80;;;;;;5094395;28;20356;-46
2022/04/04 12:04:30;;;;;;;;;;;20.30;34.00;;;;;;5086484;28;19924;-49
2022/04/04 12:06:57;;;;;;;;;;;20.30;34.00;;;;;;5087335;28;19924;-47
2022/04/04 12:09:29;;;;;;;;;;;20.30;34.00;;;;;;5091271;28;19923;-47
2022/04/04 12:12:04;;;;;;;;;;;20.30;34.00;;;;;;5087477;28;20023;-44
2022/04/04 12:14:32;;;;;;;;;;;20.30;33.90;;;;;;5090523;28;19939;-47
2022/04/04 12:16:59;;;;;;;;;;;20.30;33.80;;;;;;5091002;28;19982;-54
2022/04/04 12:19:26;;;;;;;;;;;20.30;33.80;;;;;;5086235;28;19939;-47
2022/04/04 12:21:53;;;;;;;;;;;20.30;33.70;;;;;;5087797;28;19924;-50
2022/04/04 12:27:10;;;;;;;;;;;20.30;33.70;;;;;;5086360;28;20020;-54
2022/04/04 12:29:41;;;;;;;;;;;20.30;33.70;;;;;;5092774;28;19965;-51
2022/04/04 12:32:15;;;;;;;;;;;20.30;33.70;;;;;;5093613;28;20414;-50
2022/04/04 12:34:53;;;;;;;;;;;20.30;33.70;;;;;;5090188;28;19924;-49
2022/04/04 12:37:21;;;;;;;;;;;20.30;33.60;;;;;;5095135;27;19924;-47
2022/04/04 12:39:49;;;;;;;;;;;20.30;33.70;;;;;;5089305;28;19920;-51
2022/04/04 12:42:20;;;;;;;;;;;20.30;33.70;;;;;;5098253;27;19995;-51
2022/04/04 12:44:51;;;;;;;;;;;20.30;33.60;;;;;;5089801;28;19919;-47
2022/04/04 12:47:19;;;;;;;;;;;20.30;33.70;;;;;;5089404;28;19923;-45
2022/04/04 12:49:46;;;;;;;;;;;20.30;33.70;;;;;;5090980;27;19920;-46
2022/04/04 12:52:13;;;;;;;;;;;20.30;33.70;;;;;;5088039;28;19925;-55
2022/04/04 12:54:40;;;;;;;;;;;20.30;33.70;;;;;;5090001;28;20018;-45
2022/04/04 12:57:07;;;;;;;;;;;20.30;33.80;;;;;;5087100;28;20020;-52
2022/04/04 12:59:48;;;;;;;;;;;20.30;33.90;;;;;;5088798;28;20365;-53
2022/04/04 13:02:15;;;;;;;;;;;20.30;33.80;;;;;;5088125;28;20351;-46
2022/04/04 13:04:42;;;;;;;;;;;20.30;33.90;;;;;;5091993;28;19924;-48
2022/04/04 13:07:15;;;;;;;;;;;20.30;33.90;;;;;;5087200;28;19935;-55
2022/04/04 13:09:48;;;;;;;;;;;20.30;33.90;;;;;;5090765;28;19924;-47
2022/04/04 13:12:24;;;;;;;;;;;20.30;33.90;;;;;;5088557;28;19932;-46
2022/04/04 13:14:52;;;;;;;;;;;20.30;34.00;;;;;;5087539;28;19924;-45
2022/04/04 13:17:18;;;;;;;;;;;20.30;34.00;;;;;;5084578;28;20013;-51
2022/04/04 13:19:45;;;;;;;;;;;20.30;34.00;;;;;;5085438;28;19932;-47
2022/04/04 13:22:12;;;;;;;;;;;20.30;34.10;;;;;;5087660;27;19980;-45
2022/04/04 13:24:39;;;;;;;;;;;20.30;34.10;;;;;;5085303;28;19924;-45
2022/04/04 13:27:05;;;;;;;;;;;20.30;34.10;;;;;;5079565;28;19932;-51
2022/04/04 13:29:33;;;;;;;;;;;20.30;34.10;;;;;;5090921;28;19977;-53
2022/04/04 13:32:01;;;;;;;;;;;20.30;34.10;;;;;;5083812;28;19927;-48
2022/04/04 13:34:28;;;;;;;;;;;20.30;34.10;;;;;;5087765;27;19975;-56
2022/04/04 13:36:55;;;;;;;;;;;20.30;34.10;;;;;;5085795;28;19931;-49
2022/04/04 13:39:21;;;;;;;;;;;20.30;34.10;;;;;;5086218;28;19935;-45
2022/04/04 13:41:48;;;;;;;;;;;20.30;34.30;;;;;;5087705;28;19928;-49
2022/04/04 13:44:15;;;;;;;;;;;20.30;34.30;;;;;;5093113;28;19999;-48
2022/04/04 13:46:42;;;;;;;;;;;20.30;34.30;;;;;;5087708;27;19935;-48
2022/04/04 13:49:11;;;;;;;;;;;20.30;34.20;;;;;;5086822;28;20350;-48
2022/04/04 13:51:38;;;;;;;;;;;20.30;34.20;;;;;;5088708;28;20276;-49
2022/04/04 13:54:05;;;;;;;;;;;20.30;34.20;;;;;;5088744;28;20321;-48
2022/04/04 13:56:32;;;;;;;;;;;20.30;34.20;;;;;;5094711;28;20030;-47
2022/04/04 13:59:00;;;;;;;;;;;20.40;34.30;;;;;;5095236;27;19988;-45
2022/04/04 14:01:27;;;;;;;;;;;20.40;34.40;;;;;;5086565;28;19987;-48
2022/04/04 14:03:56;;;;;;;;;;;20.40;34.40;;;;;;5090907;28;20009;-50
2022/04/04 14:06:25;;;;;;;;;;;20.40;34.40;;;;;;5086378;28;19939;-45
2022/04/04 14:08:51;;;;;;;;;;;20.40;34.40;;;;;;5088329;27;20284;-53
2022/04/04 14:11:19;;;;;;;;;;;20.40;34.40;;;;;;5085488;28;19928;-56
2022/04/04 14:13:47;;;;;;;;;;;20.40;34.50;;;;;;5088389;28;19989;-52
2022/04/04 14:16:14;;;;;;;;;;;20.40;34.40;;;;;;5087011;28;19924;-45
2022/04/04 14:18:41;;;;;;;;;;;20.40;34.50;;;;;;5090764;28;19935;-47
2022/04/04 14:21:09;;;;;;;;;;;20.40;34.40;;;;;;5084268;28;19970;-47
2022/04/04 14:23:38;;;;;;;;;;;20.50;34.50;;;;;;5090977;28;19928;-52
2022/04/04 14:26:05;;;;;;;;;;;20.50;34.50;;;;;;5084679;28;19932;-52
2022/04/04 14:28:33;;;;;;;;;;;20.50;34.50;;;;;;5090929;28;19975;-48